Terminal Aerodrome Forecast
Issued by NWS

Home | Current Version | Previous Version | Text Only | Print | Product List | Glossary On
Versions: 1 2 3 4 5 6 7 8 9 10 11 12 13 14 15 16 17
000
FTUS43 KMPX 031720
TAFRNH
TAF
KRNH 031720Z 0318/0418 25007KT P6SM SCT050 SCT250
     FM032200 25005KT P6SM VCSH SCT050 BKN080
     FM040200 VRB03KT P6SM SCT070
     FM041400 12003KT P6SM SKC=

USA.gov is the U.S. government's official web portal to all federal, state and local government web resources and services.